Flight Track Log - Related Links

Times and Time Zones

All times are in EST time to prevent confusion due to time zone crossing. See the N690TW flight status page for this flight to view local times or setup timezone preferences in your user account.

Time Position Orientation Groundspeed Altitude Reporting Facility
EST Latitude Longitude Course Direction KTS MPH feet Rate Location/Type
Sat 03:11:49 PM 36.1061 -115.1475 58° Northeast 142 163 3,300  Level Los Angeles Center
Sat 03:13:06 PM 36.1358 -115.0881 58° Northeast 156 180 5,700 1,899 Climbing Los Angeles Center
Sat 03:14:08 PM 36.1683 -115.0489 44° Northeast 161 185 7,700 2,081 Climbing Los Angeles Center
Sat 03:15:10 PM 36.1994 -115.0103 45° Northeast 149 171 10,000 1,920 Climbing Los Angeles Center
Sat 03:16:13 PM 36.2269 -114.9736 47° Northeast 147 169 11,700 1,440 Climbing Los Angeles Center
Sat 03:17:15 PM 36.2567 -114.9364 45° Northeast 155 178 13,000 823 Climbing Los Angeles Center
Sat 03:18:17 PM 36.2961 -114.8839 47° Northeast 195 224 13,400 968 Climbing Los Angeles Center
Sat 03:19:19 PM 36.3361 -114.8344 45° Northeast 204 235 15,000 1,742 Climbing Los Angeles Center
Sat 03:20:21 PM 36.3772 -114.7808 46° Northeast 181 208 17,000 1,548 Climbing Los Angeles Center
Sat 03:21:23 PM 36.4108 -114.7383 45° Northeast 175 201 18,200 1,452 Climbing Los Angeles Center
Sat 03:22:25 PM 36.4431 -114.6975 46° Northeast 167 192 20,000 1,597 Climbing Los Angeles Center
Sat 03:23:27 PM 36.4731 -114.6583 46° Northeast 157 181 21,500 1,452 Climbing Los Angeles Center
Sat 03:24:29 PM 36.5050 -114.6172 46° Northeast 164 189 23,000 1,597 Climbing Los Angeles Center
Sat 03:25:31 PM 36.5458 -114.5656 45° Northeast 173 199 24,800 1,488 Climbing Los Angeles Center
Sat 03:26:34 PM 36.5719 -114.5111 59° Northeast 192 221 26,100 1,152 Climbing Los Angeles Center
Sat 03:27:36 PM 36.5892 -114.4422 73° East 208 239 27,200 1,065 Climbing Los Angeles Center
Sat 03:28:38 PM 36.6058 -114.3725 73° East 210 242 28,300 1,016 Climbing Los Angeles Center
Sat 03:29:40 PM 36.6239 -114.3019 72° East 212 244 29,300 968 Climbing Los Angeles Center
Sat 03:30:42 PM 36.6400 -114.2336 74° East 208 239 30,300 823 Climbing Los Angeles Center
Sat 03:31:44 PM 36.6575 -114.1658 72° East 199 229 31,000 339 Climbing Los Angeles Center
Sat 03:32:46 PM 36.6758 -114.0925 73° East 218 251 31,000  Level Los Angeles Center
Sat 03:33:48 PM 36.6992 -113.9983 73° East 236 272 31,000  Level Los Angeles Center
Sat 03:34:50 PM 36.7178 -113.9181 74° East 242 278 31,000  Level Los Angeles Center
Sat 03:35:52 PM 36.7372 -113.8375 73° East 244 281 31,000  Level Los Angeles Center
Sat 03:36:55 PM 36.7572 -113.7575 73° East 243 280 31,000  Level Los Angeles Center
Sat 03:37:57 PM 36.7758 -113.6781 74° East 240 276 31,000  Level Los Angeles Center
Sat 03:38:59 PM 36.7986 -113.5850 73° East 235 270 31,000  Level Los Angeles Center
Sat 03:40:01 PM 36.8175 -113.5075 73° East 235 270 31,000  Level Los Angeles Center
Sat 03:41:03 PM 36.8364 -113.4300 73° East 234 269 31,000  Level Los Angeles Center
Sat 03:42:05 PM 36.8544 -113.3519 74° East 235 270 31,000  Level Los Angeles Center
Sat 03:43:07 PM 36.8722 -113.2744 74° East 233 268 31,000  Level Los Angeles Center
Sat 03:44:09 PM 36.8900 -113.1989 74° East 229 264 31,000  Level Los Angeles Center
Sat 03:45:11 PM 36.9122 -113.1072 73° East 230 265 31,000  Level Los Angeles Center
Sat 03:46:13 PM 36.9294 -113.0300 74° East 231 266 31,000  Level Los Angeles Center
Sat 03:47:15 PM 36.9481 -112.9533 73° East 232 267 31,000  Level Los Angeles Center
Sat 03:48:18 PM 36.9653 -112.8772 74° East 231 266 31,000  Level Los Angeles Center
Sat 03:49:20 PM 36.9828 -112.8053 73° East 224 258 31,000  Level Los Angeles Center
Sat 03:50:22 PM 37.0033 -112.7178 74° East 220 253 31,000  Level Los Angeles Center
Sat 03:51:24 PM 37.0194 -112.6450 74° East 219 252 31,000  Level Los Angeles Center
Sat 03:52:26 PM 37.0372 -112.5706 73° East 223 257 31,000  Level Los Angeles Center
Sat 03:53:28 PM 37.0544 -112.4986 73° East 219 252 31,000  Level Los Angeles Center
Sat 03:54:30 PM 37.0836 -112.4383 59° Northeast 207 238 31,000  Level Los Angeles Center
Sat 03:55:32 PM 37.1153 -112.3847 53° Northeast 194 223 31,000  Level Los Angeles Center
Sat 03:56:34 PM 37.1511 -112.3186 56° Northeast 194 223 31,000  Level Los Angeles Center
Sat 03:57:36 PM 37.1828 -112.2669 52° Northeast 189 217 31,000  Level Los Angeles Center
Sat 03:58:38 PM 37.2125 -112.2131 55° Northeast 189 217 31,000  Level Los Angeles Center
Sat 03:59:40 PM 37.2422 -112.1619 54° Northeast 185 213 31,000  Level Los Angeles Center
Sat 04:00:42 PM 37.2719 -112.1108 54° Northeast 183 211 31,000  Level Los Angeles Center
Sat 04:01:44 PM 37.3078 -112.0475 55° Northeast 185 213 31,000  Level Los Angeles Center
Sat 04:02:46 PM 37.3378 -111.9953 54° Northeast 186 214 31,000  Level Los Angeles Center
Sat 04:03:48 PM 37.3689 -111.9411 54° Northeast 190 219 31,000  Level Los Angeles Center
Sat 04:04:23 PM 37.3872 -111.9078 55° Northeast 192 221 31,000  Level Salt Lake Center
Sat 04:05:18 PM 37.4128 -111.8650 53° Northeast 187 215 31,000  Level Denver Center
Sat 04:06:18 PM 37.4428 -111.8125 54° Northeast 187 215 31,000  Level Denver Center
Sat 04:07:19 PM 37.4722 -111.7611 54° Northeast 187 215 31,000  Level Denver Center
Sat 04:08:23 PM 37.5061 -111.6972 56° Northeast 187 215 31,000  Level Denver Center
Sat 04:09:24 PM 37.5361 -111.6453 54° Northeast 186 214 31,000  Level Denver Center
Sat 04:10:28 PM 37.5642 -111.5933 56° Northeast 184 212 31,000  Level Denver Center
Sat 04:11:28 PM 37.5936 -111.5397 55° Northeast 184 212 31,000  Level Denver Center
Sat 04:12:30 PM 37.6253 -111.4847 54° Northeast 188 216 31,000  Level Denver Center
Sat 04:13:33 PM 37.6603 -111.4203 56° Northeast 188 216 31,000  Level Denver Center
Sat 04:14:38 PM 37.6914 -111.3664 54° Northeast 188 216 31,000  Level Salt Lake Center
Sat 04:15:37 PM 37.7192 -111.3114 57° Northeast 187 215 31,000  Level Denver Center
Sat 04:16:39 PM 37.7492 -111.2578 55° Northeast 188 216 31,000  Level Denver Center
Sat 04:17:41 PM 37.7817 -111.2014 54° Northeast 196 226 31,000  Level Denver Center
Sat 04:18:43 PM 37.8131 -111.1406 57° Northeast 204 235 31,000  Level Denver Center
Sat 04:19:44 PM 37.8533 -111.0689 55° Northeast 208 239 31,000  Level Denver Center
Sat 04:20:47 PM 37.8869 -111.0103 54° Northeast 206 237 31,000  Level Salt Lake Center
Sat 04:21:49 PM 37.9192 -110.9492 56° Northeast 208 239 31,000  Level Salt Lake Center
Sat 04:22:50 PM 37.9525 -110.8872 56° Northeast 210 242 31,000  Level Salt Lake Center
Sat 04:23:52 PM 37.9903 -110.8189 55° Northeast 212 244 31,000 -49 Level Salt Lake Center
Sat 04:24:53 PM 38.0239 -110.7603 54° Northeast 213 245 30,900 -537 Descending Salt Lake Center
Sat 04:25:55 PM 38.0567 -110.6989 56° Northeast 217 250 29,900 -1,016 Descending Salt Lake Center
Sat 04:26:57 PM 38.0953 -110.6275 55° Northeast 220 253 28,800 -960 Descending Salt Lake Center
Sat 04:28:00 PM 38.1283 -110.5661 56° Northeast 219 252 27,900 -823 Descending Denver Center
Sat 04:29:01 PM 38.1661 -110.4947 56° Northeast 219 252 27,100 -768 Descending Denver Center
Sat 04:30:05 PM 38.2008 -110.4336 54° Northeast 220 253 26,300 -816 Descending Denver Center
Sat 04:31:06 PM 38.2400 -110.3586 56° Northeast 224 258 25,400 -624 Descending Denver Center
Sat 04:32:10 PM 38.2747 -110.2953 55° Northeast 228 262 25,000 -194 Descending Denver Center
Sat 04:33:10 PM 38.3114 -110.2228 57° Northeast 223 257 25,000  Level Denver Center
Sat 04:34:12 PM 38.3461 -110.1631 53° Northeast 222 255 25,000  Level Denver Center
Sat 04:35:09 PM 38.3775 -110.1017 57° Northeast 216 249 25,000  Level Salt Lake Center
Sat 04:36:11 PM 38.4153 -110.0303 56° Northeast 217 250 25,000  Level Salt Lake Center
Sat 04:37:13 PM 38.4475 -109.9694 56° Northeast 217 250 25,000  Level Salt Lake Center
Sat 04:38:14 PM 38.4856 -109.8975 56° Northeast 218 251 25,000  Level Salt Lake Center
Sat 04:39:16 PM 38.5189 -109.8367 55° Northeast 219 252 25,000  Level Salt Lake Center
Sat 04:40:17 PM 38.5522 -109.7753 55° Northeast 220 253 25,000  Level Salt Lake Center
Sat 04:41:19 PM 38.5892 -109.7017 57° Northeast 220 253 25,000  Level Salt Lake Center
Sat 04:42:21 PM 38.6214 -109.6394 56° Northeast 220 253 25,000  Level Salt Lake Center
Sat 04:43:22 PM 38.6592 -109.5672 56° Northeast 220 253 25,000  Level Salt Lake Center
Sat 04:44:24 PM 38.6914 -109.5050 56° Northeast 219 252 25,000  Level Salt Lake Center
Sat 04:45:26 PM 38.7300 -109.4322 56° Northeast 220 253 25,000  Level Salt Lake Center
Sat 04:46:27 PM 38.7631 -109.3703 56° Northeast 221 254 25,000  Level Salt Lake Center
Sat 04:47:29 PM 38.7942 -109.3075 58° Northeast 220 253 25,000 -677 Level Salt Lake Center
Sat 04:48:31 PM 38.8336 -109.2306 57° Northeast 224 258 23,600 -1,512 Descending Salt Lake Center
Sat 04:49:32 PM 38.8692 -109.1664 55° Northeast 229 264 21,900 -1,854 Descending Salt Lake Center
Sat 04:50:34 PM 38.9097 -109.0844 58° Northeast 236 272 19,800 -1,925 Descending Salt Lake Center
Sat 04:51:46 PM 38.9558 -108.9958 56° Northeast 253 291 17,600 -1,970 Descending Denver Center
Sat 04:52:48 PM 38.9989 -108.9153 55° Northeast 254 292 15,400 -2,064 Descending Denver Center
Sat 04:53:51 PM 39.0358 -108.8433 57° Northeast 242 278 13,300 -2,098 Descending Denver Center
Sat 04:54:51 PM 39.0997 -108.8097 22° Northeast 251 289 11,100 -2,129 Descending Denver Center
Sat 04:55:55 PM 39.1692 -108.7731 22° Northeast 251 289 8,900 -1,512 Descending Denver Center
Sat 04:56:54 PM 39.2178 -108.7489 21° North 208 239 8,000 -787 Descending Denver Center
Sat 04:57:57 PM 39.2108 -108.6858 98° East 186 214 7,300 -726 Descending Denver Center
Sat 04:58:58 PM 39.1828 -108.6325 124° Southeast 171 197 6,500 -774 Descending Denver Center
Sat 05:00:01 PM 39.1578 -108.5861 125° Southeast 161 185 5,700 -780 Descending Denver Center
Sat 05:01:01 PM 39.1353 -108.5464 126° Southeast 130 150 4,900 -403 Descending Denver Center
Sat 05:02:15 PM 39.1175 -108.5125 124° Southeast 126 145 4,800 -81 Descending Denver Center

Login

Don't have an account? Register now (free) for customized features, flight alerts, and more!